sensor_id;sensor_type;location;lat;lon;timestamp;temperature;humidity
25628;DHT22;40915;50.826;4.356;2022-07-25T00:02:25;25.00;99.90
25628;DHT22;40915;50.826;4.356;2022-07-25T00:04:54;25.00;99.90
25628;DHT22;40915;50.826;4.356;2022-07-25T00:07:20;25.00;99.90
25628;DHT22;40915;50.826;4.356;2022-07-25T00:09:45;25.00;99.90
25628;DHT22;40915;50.826;4.356;2022-07-25T00:12:11;25.00;99.90
25628;DHT22;40915;50.826;4.356;2022-07-25T00:14:36;25.00;99.90
25628;DHT22;40915;50.826;4.356;2022-07-25T00:17:02;25.00;99.90
25628;DHT22;40915;50.826;4.356;2022-07-25T00:19:28;25.00;99.90
25628;DHT22;40915;50.826;4.356;2022-07-25T00:21:53;24.90;99.90
25628;DHT22;40915;50.826;4.356;2022-07-25T00:24:19;24.90;99.90
25628;DHT22;40915;50.826;4.356;2022-07-25T00:26:44;24.90;99.90
25628;DHT22;40915;50.826;4.356;2022-07-25T00:29:10;24.90;99.90
25628;DHT22;40915;50.826;4.356;2022-07-25T00:31:36;24.90;99.90
25628;DHT22;40915;50.826;4.356;2022-07-25T00:34:02;24.90;99.90
25628;DHT22;40915;50.826;4.356;2022-07-25T00:36:27;24.80;99.90
25628;DHT22;40915;50.826;4.356;2022-07-25T00:38:53;24.90;99.90
25628;DHT22;40915;50.826;4.356;2022-07-25T00:41:19;24.80;99.90
25628;DHT22;40915;50.826;4.356;2022-07-25T00:43:45;24.80;99.90
25628;DHT22;40915;50.826;4.356;2022-07-25T00:46:15;24.80;99.90
25628;DHT22;40915;50.826;4.356;2022-07-25T00:48:41;24.80;99.90
25628;DHT22;40915;50.826;4.356;2022-07-25T00:51:08;24.80;99.90
25628;DHT22;40915;50.826;4.356;2022-07-25T00:53:35;24.80;99.90
25628;DHT22;40915;50.826;4.356;2022-07-25T00:56:01;24.70;99.90
25628;DHT22;40915;50.826;4.356;2022-07-25T00:58:26;24.70;99.90
25628;DHT22;40915;50.826;4.356;2022-07-25T01:00:52;24.70;99.90
25628;DHT22;40915;50.826;4.356;2022-07-25T01:03:18;24.60;99.90
25628;DHT22;40915;50.826;4.356;2022-07-25T01:05:43;24.60;99.90
25628;DHT22;40915;50.826;4.356;2022-07-25T01:08:09;24.60;99.90
25628;DHT22;40915;50.826;4.356;2022-07-25T01:10:35;24.60;99.90
25628;DHT22;40915;50.826;4.356;2022-07-25T01:13:02;24.60;99.90
25628;DHT22;40915;50.826;4.356;2022-07-25T01:15:28;24.60;99.90
25628;DHT22;40915;50.826;4.356;2022-07-25T01:17:54;24.50;99.90
25628;DHT22;40915;50.826;4.356;2022-07-25T01:20:21;24.50;99.90
25628;DHT22;40915;50.826;4.356;2022-07-25T01:22:47;24.50;99.90
25628;DHT22;40915;50.826;4.356;2022-07-25T01:25:14;24.50;99.90
25628;DHT22;40915;50.826;4.356;2022-07-25T01:27:41;24.40;99.90
25628;DHT22;40915;50.826;4.356;2022-07-25T01:30:08;24.40;99.90
25628;DHT22;40915;50.826;4.356;2022-07-25T01:32:35;24.30;99.90
25628;DHT22;40915;50.826;4.356;2022-07-25T01:35:01;24.30;99.90
25628;DHT22;40915;50.826;4.356;2022-07-25T01:37:27;24.30;99.90
25628;DHT22;40915;50.826;4.356;2022-07-25T01:39:52;24.20;99.90
25628;DHT22;40915;50.826;4.356;2022-07-25T01:42:18;24.20;99.90
25628;DHT22;40915;50.826;4.356;2022-07-25T01:44:44;24.20;99.90
25628;DHT22;40915;50.826;4.356;2022-07-25T01:47:10;24.20;99.90
25628;DHT22;40915;50.826;4.356;2022-07-25T01:49:35;24.20;99.90
25628;DHT22;40915;50.826;4.356;2022-07-25T01:52:01;24.20;99.90
25628;DHT22;40915;50.826;4.356;2022-07-25T01:54:27;24.20;99.90
25628;DHT22;40915;50.826;4.356;2022-07-25T01:56:52;24.10;99.90
25628;DHT22;40915;50.826;4.356;2022-07-25T01:59:18;24.20;99.90
25628;DHT22;40915;50.826;4.356;2022-07-25T02:01:44;24.20;99.90
25628;DHT22;40915;50.826;4.356;2022-07-25T02:04:09;24.10;99.90
25628;DHT22;40915;50.826;4.356;2022-07-25T02:06:35;24.10;99.90
25628;DHT22;40915;50.826;4.356;2022-07-25T02:09:01;24.00;99.90
25628;DHT22;40915;50.826;4.356;2022-07-25T02:11:27;24.00;99.90
25628;DHT22;40915;50.826;4.356;2022-07-25T02:13:52;23.90;99.90
25628;DHT22;40915;50.826;4.356;2022-07-25T02:16:18;23.90;99.90
25628;DHT22;40915;50.826;4.356;2022-07-25T02:18:43;23.80;99.90
25628;DHT22;40915;50.826;4.356;2022-07-25T02:21:10;23.80;99.90
25628;DHT22;40915;50.826;4.356;2022-07-25T02:23:36;23.70;99.90
25628;DHT22;40915;50.826;4.356;2022-07-25T02:26:03;23.70;99.90
25628;DHT22;40915;50.826;4.356;2022-07-25T02:28:28;23.70;99.90
25628;DHT22;40915;50.826;4.356;2022-07-25T02:30:54;23.70;99.90
25628;DHT22;40915;50.826;4.356;2022-07-25T02:33:20;24.20;99.90
25628;DHT22;40915;50.826;4.356;2022-07-25T02:35:45;23.60;99.90
25628;DHT22;40915;50.826;4.356;2022-07-25T02:38:14;23.50;99.90
25628;DHT22;40915;50.826;4.356;2022-07-25T02:40:48;23.50;99.90
25628;DHT22;40915;50.826;4.356;2022-07-25T02:43:14;23.50;99.90
25628;DHT22;40915;50.826;4.356;2022-07-25T02:45:39;23.50;99.90
25628;DHT22;40915;50.826;4.356;2022-07-25T02:48:05;23.50;99.90
25628;DHT22;40915;50.826;4.356;2022-07-25T02:50:31;23.40;99.90
25628;DHT22;40915;50.826;4.356;2022-07-25T02:52:56;23.40;99.90
25628;DHT22;40915;50.826;4.356;2022-07-25T02:55:22;23.40;99.90
25628;DHT22;40915;50.826;4.356;2022-07-25T02:57:48;23.30;99.90
25628;DHT22;40915;50.826;4.356;2022-07-25T03:00:14;23.20;99.90
25628;DHT22;40915;50.826;4.356;2022-07-25T03:02:40;23.20;99.90
25628;DHT22;40915;50.826;4.356;2022-07-25T03:05:07;23.20;99.90
25628;DHT22;40915;50.826;4.356;2022-07-25T03:07:33;23.10;99.90
25628;DHT22;40915;50.826;4.356;2022-07-25T03:09:59;23.20;99.90
25628;DHT22;40915;50.826;4.356;2022-07-25T03:12:25;23.10;99.90
25628;DHT22;40915;50.826;4.356;2022-07-25T03:14:50;23.10;99.90
25628;DHT22;40915;50.826;4.356;2022-07-25T03:17:16;23.10;99.90
25628;DHT22;40915;50.826;4.356;2022-07-25T03:19:42;23.10;99.90
25628;DHT22;40915;50.826;4.356;2022-07-25T03:22:07;23.10;99.90
25628;DHT22;40915;50.826;4.356;2022-07-25T03:24:33;23.10;99.90
25628;DHT22;40915;50.826;4.356;2022-07-25T03:26:58;23.10;99.90
25628;DHT22;40915;50.826;4.356;2022-07-25T03:29:24;23.10;99.90
25628;DHT22;40915;50.826;4.356;2022-07-25T03:31:50;23.10;99.90
25628;DHT22;40915;50.826;4.356;2022-07-25T03:34:15;23.10;99.90
25628;DHT22;40915;50.826;4.356;2022-07-25T03:36:41;23.10;99.90
25628;DHT22;40915;50.826;4.356;2022-07-25T03:39:07;23.10;99.90
25628;DHT22;40915;50.826;4.356;2022-07-25T03:41:32;23.10;99.90
25628;DHT22;40915;50.826;4.356;2022-07-25T03:43:58;23.10;99.90
25628;DHT22;40915;50.826;4.356;2022-07-25T03:46:23;23.20;99.90
25628;DHT22;40915;50.826;4.356;2022-07-25T03:48:49;23.10;99.90
25628;DHT22;40915;50.826;4.356;2022-07-25T03:51:15;23.10;99.90
25628;DHT22;40915;50.826;4.356;2022-07-25T03:53:42;23.10;99.90
25628;DHT22;40915;50.826;4.356;2022-07-25T03:56:27;23.10;99.90
25628;DHT22;40915;50.826;4.356;2022-07-25T03:58:52;22.90;99.90
25628;DHT22;40915;50.826;4.356;2022-07-25T04:01:18;24.30;99.90
25628;DHT22;40915;50.826;4.356;2022-07-25T04:03:43;22.80;99.90
25628;DHT22;40915;50.826;4.356;2022-07-25T04:06:09;22.70;99.90
25628;DHT22;40915;50.826;4.356;2022-07-25T04:08:35;22.70;99.90
25628;DHT22;40915;50.826;4.356;2022-07-25T04:11:00;22.70;99.90
25628;DHT22;40915;50.826;4.356;2022-07-25T04:13:26;22.70;99.90
25628;DHT22;40915;50.826;4.356;2022-07-25T04:15:51;22.60;99.90
25628;DHT22;40915;50.826;4.356;2022-07-25T04:18:17;22.50;99.90
25628;DHT22;40915;50.826;4.356;2022-07-25T04:20:43;22.40;99.90
25628;DHT22;40915;50.826;4.356;2022-07-25T04:23:08;22.40;99.90
25628;DHT22;40915;50.826;4.356;2022-07-25T04:25:34;22.40;99.90
25628;DHT22;40915;50.826;4.356;2022-07-25T04:28:00;22.40;99.90
25628;DHT22;40915;50.826;4.356;2022-07-25T04:30:25;22.50;99.90
25628;DHT22;40915;50.826;4.356;2022-07-25T04:32:51;22.40;99.90
25628;DHT22;40915;50.826;4.356;2022-07-25T04:35:17;22.50;99.90
25628;DHT22;40915;50.826;4.356;2022-07-25T04:37:42;22.40;99.90
25628;DHT22;40915;50.826;4.356;2022-07-25T04:40:08;22.30;99.90
25628;DHT22;40915;50.826;4.356;2022-07-25T04:42:35;22.30;99.90
25628;DHT22;40915;50.826;4.356;2022-07-25T04:45:01;22.30;99.90
25628;DHT22;40915;50.826;4.356;2022-07-25T04:47:26;22.30;99.90
25628;DHT22;40915;50.826;4.356;2022-07-25T04:49:54;22.20;99.90
25628;DHT22;40915;50.826;4.356;2022-07-25T04:52:19;22.20;99.90
25628;DHT22;40915;50.826;4.356;2022-07-25T04:54:45;22.20;99.90
25628;DHT22;40915;50.826;4.356;2022-07-25T04:57:11;22.20;99.90
25628;DHT22;40915;50.826;4.356;2022-07-25T04:59:36;22.20;99.90
25628;DHT22;40915;50.826;4.356;2022-07-25T05:02:02;22.20;99.90
25628;DHT22;40915;50.826;4.356;2022-07-25T05:04:28;22.20;99.90
25628;DHT22;40915;50.826;4.356;2022-07-25T05:06:53;22.20;99.90
25628;DHT22;40915;50.826;4.356;2022-07-25T05:09:19;22.20;99.90
25628;DHT22;40915;50.826;4.356;2022-07-25T05:11:45;22.20;99.90
25628;DHT22;40915;50.826;4.356;2022-07-25T05:14:10;22.10;99.90
25628;DHT22;40915;50.826;4.356;2022-07-25T05:16:36;22.00;99.90
25628;DHT22;40915;50.826;4.356;2022-07-25T05:19:02;22.10;99.90
25628;DHT22;40915;50.826;4.356;2022-07-25T05:21:28;22.00;99.90
25628;DHT22;40915;50.826;4.356;2022-07-25T05:23:53;22.00;99.90
25628;DHT22;40915;50.826;4.356;2022-07-25T05:26:19;22.10;99.90
25628;DHT22;40915;50.826;4.356;2022-07-25T05:28:44;22.00;99.90
25628;DHT22;40915;50.826;4.356;2022-07-25T05:31:10;22.00;99.90
25628;DHT22;40915;50.826;4.356;2022-07-25T05:33:36;22.00;99.90
25628;DHT22;40915;50.826;4.356;2022-07-25T05:36:01;21.80;99.90
25628;DHT22;40915;50.826;4.356;2022-07-25T05:38:28;21.80;99.90
25628;DHT22;40915;50.826;4.356;2022-07-25T05:40:54;21.90;99.90
25628;DHT22;40915;50.826;4.356;2022-07-25T05:43:20;22.00;99.90
25628;DHT22;40915;50.826;4.356;2022-07-25T05:45:45;21.90;99.90
25628;DHT22;40915;50.826;4.356;2022-07-25T05:48:14;22.00;99.90
25628;DHT22;40915;50.826;4.356;2022-07-25T05:50:40;22.00;99.90
25628;DHT22;40915;50.826;4.356;2022-07-25T05:53:06;22.10;99.90
25628;DHT22;40915;50.826;4.356;2022-07-25T05:55:31;22.10;99.90
25628;DHT22;40915;50.826;4.356;2022-07-25T05:57:57;22.00;99.90
25628;DHT22;40915;50.826;4.356;2022-07-25T06:00:23;22.10;99.90
25628;DHT22;40915;50.826;4.356;2022-07-25T06:02:49;22.20;99.90
25628;DHT22;40915;50.826;4.356;2022-07-25T06:05:15;22.20;99.90
25628;DHT22;40915;50.826;4.356;2022-07-25T06:07:40;22.20;99.90
25628;DHT22;40915;50.826;4.356;2022-07-25T06:10:06;22.20;99.90
25628;DHT22;40915;50.826;4.356;2022-07-25T06:12:32;22.10;99.90
25628;DHT22;40915;50.826;4.356;2022-07-25T06:15:01;22.20;99.90
25628;DHT22;40915;50.826;4.356;2022-07-25T06:17:26;22.30;99.90
25628;DHT22;40915;50.826;4.356;2022-07-25T06:19:52;22.40;99.90
25628;DHT22;40915;50.826;4.356;2022-07-25T06:22:17;22.50;99.90
25628;DHT22;40915;50.826;4.356;2022-07-25T06:24:46;22.80;99.90
25628;DHT22;40915;50.826;4.356;2022-07-25T06:27:11;22.90;99.90
25628;DHT22;40915;50.826;4.356;2022-07-25T06:29:37;23.00;99.90
25628;DHT22;40915;50.826;4.356;2022-07-25T06:32:03;22.80;99.90
25628;DHT22;40915;50.826;4.356;2022-07-25T06:34:29;22.80;99.90
25628;DHT22;40915;50.826;4.356;2022-07-25T06:36:55;22.70;99.90
25628;DHT22;40915;50.826;4.356;2022-07-25T06:39:22;22.60;99.90
25628;DHT22;40915;50.826;4.356;2022-07-25T06:41:48;22.50;99.90
25628;DHT22;40915;50.826;4.356;2022-07-25T06:44:14;22.90;99.90
25628;DHT22;40915;50.826;4.356;2022-07-25T06:46:39;23.50;99.90
25628;DHT22;40915;50.826;4.356;2022-07-25T06:49:05;24.20;99.90
25628;DHT22;40915;50.826;4.356;2022-07-25T06:51:31;24.60;99.90
25628;DHT22;40915;50.826;4.356;2022-07-25T06:53:57;24.30;99.90
25628;DHT22;40915;50.826;4.356;2022-07-25T06:56:23;24.40;99.90
25628;DHT22;40915;50.826;4.356;2022-07-25T06:58:49;25.00;99.90
25628;DHT22;40915;50.826;4.356;2022-07-25T07:01:14;25.60;99.90
25628;DHT22;40915;50.826;4.356;2022-07-25T07:03:40;26.40;99.90
25628;DHT22;40915;50.826;4.356;2022-07-25T07:06:08;26.30;99.90
25628;DHT22;40915;50.826;4.356;2022-07-25T07:08:34;26.30;99.90
25628;DHT22;40915;50.826;4.356;2022-07-25T07:11:00;26.50;99.90
25628;DHT22;40915;50.826;4.356;2022-07-25T07:13:26;26.40;99.90
25628;DHT22;40915;50.826;4.356;2022-07-25T07:15:52;25.90;99.90
25628;DHT22;40915;50.826;4.356;2022-07-25T07:18:19;25.90;99.90
25628;DHT22;40915;50.826;4.356;2022-07-25T07:20:45;25.70;99.90
25628;DHT22;40915;50.826;4.356;2022-07-25T07:23:12;25.30;99.90
25628;DHT22;40915;50.826;4.356;2022-07-25T07:25:38;25.00;99.90
25628;DHT22;40915;50.826;4.356;2022-07-25T07:28:04;24.60;99.90
25628;DHT22;40915;50.826;4.356;2022-07-25T07:30:30;24.90;99.90
25628;DHT22;40915;50.826;4.356;2022-07-25T07:32:56;25.90;99.90
25628;DHT22;40915;50.826;4.356;2022-07-25T07:35:21;26.70;99.90
25628;DHT22;40915;50.826;4.356;2022-07-25T07:37:47;27.00;99.90
25628;DHT22;40915;50.826;4.356;2022-07-25T07:40:15;27.10;99.90
25628;DHT22;40915;50.826;4.356;2022-07-25T07:42:45;27.00;99.90
25628;DHT22;40915;50.826;4.356;2022-07-25T07:45:22;27.60;99.90
25628;DHT22;40915;50.826;4.356;2022-07-25T07:47:49;28.20;99.90
25628;DHT22;40915;50.826;4.356;2022-07-25T07:50:17;28.40;99.90
25628;DHT22;40915;50.826;4.356;2022-07-25T07:52:43;28.00;99.90
25628;DHT22;40915;50.826;4.356;2022-07-25T07:55:10;28.10;99.90
25628;DHT22;40915;50.826;4.356;2022-07-25T07:57:54;27.80;99.90
25628;DHT22;40915;50.826;4.356;2022-07-25T08:00:20;28.30;99.90
25628;DHT22;40915;50.826;4.356;2022-07-25T08:02:48;29.10;99.90
25628;DHT22;40915;50.826;4.356;2022-07-25T08:07:47;29.80;99.90
25628;DHT22;40915;50.826;4.356;2022-07-25T08:10:15;30.00;99.90
25628;DHT22;40915;50.826;4.356;2022-07-25T08:12:41;30.00;99.90
25628;DHT22;40915;50.826;4.356;2022-07-25T08:15:08;29.50;99.90
25628;DHT22;40915;50.826;4.356;2022-07-25T08:17:34;29.00;99.90
25628;DHT22;40915;50.826;4.356;2022-07-25T08:19:59;29.20;99.90
25628;DHT22;40915;50.826;4.356;2022-07-25T08:22:35;29.20;99.90
25628;DHT22;40915;50.826;4.356;2022-07-25T08:25:00;29.30;99.90
25628;DHT22;40915;50.826;4.356;2022-07-25T08:27:26;29.20;99.90
25628;DHT22;40915;50.826;4.356;2022-07-25T08:29:52;29.20;99.90
25628;DHT22;40915;50.826;4.356;2022-07-25T08:32:17;28.50;99.90
25628;DHT22;40915;50.826;4.356;2022-07-25T08:34:43;28.20;99.90
25628;DHT22;40915;50.826;4.356;2022-07-25T08:37:08;28.60;99.90
25628;DHT22;40915;50.826;4.356;2022-07-25T08:39:34;28.80;99.90
25628;DHT22;40915;50.826;4.356;2022-07-25T08:42:00;29.00;99.90
25628;DHT22;40915;50.826;4.356;2022-07-25T08:44:30;28.50;99.90
25628;DHT22;40915;50.826;4.356;2022-07-25T08:46:58;27.80;99.90
25628;DHT22;40915;50.826;4.356;2022-07-25T08:49:26;27.30;99.90
25628;DHT22;40915;50.826;4.356;2022-07-25T08:51:54;26.80;99.90
25628;DHT22;40915;50.826;4.356;2022-07-25T08:54:22;26.30;99.90
25628;DHT22;40915;50.826;4.356;2022-07-25T08:56:49;26.10;99.90
25628;DHT22;40915;50.826;4.356;2022-07-25T08:59:15;25.90;99.90
25628;DHT22;40915;50.826;4.356;2022-07-25T09:01:40;25.70;99.90
25628;DHT22;40915;50.826;4.356;2022-07-25T09:04:09;25.40;99.90
25628;DHT22;40915;50.826;4.356;2022-07-25T09:06:35;25.20;99.90
25628;DHT22;40915;50.826;4.356;2022-07-25T09:09:02;25.20;99.90
25628;DHT22;40915;50.826;4.356;2022-07-25T09:11:35;25.00;99.90
25628;DHT22;40915;50.826;4.356;2022-07-25T09:14:06;25.00;99.90
25628;DHT22;40915;50.826;4.356;2022-07-25T09:16:34;25.00;99.90
25628;DHT22;40915;50.826;4.356;2022-07-25T09:21:36;25.00;99.90
25628;DHT22;40915;50.826;4.356;2022-07-25T09:24:09;25.20;99.90
25628;DHT22;40915;50.826;4.356;2022-07-25T09:26:47;25.40;99.90
25628;DHT22;40915;50.826;4.356;2022-07-25T09:31:47;25.30;99.90
25628;DHT22;40915;50.826;4.356;2022-07-25T09:34:31;25.60;99.90
25628;DHT22;40915;50.826;4.356;2022-07-25T09:36:59;25.60;99.90
25628;DHT22;40915;50.826;4.356;2022-07-25T09:39:40;25.80;99.90
25628;DHT22;40915;50.826;4.356;2022-07-25T09:44:55;25.90;99.90
25628;DHT22;40915;50.826;4.356;2022-07-25T09:47:21;25.80;99.90
25628;DHT22;40915;50.826;4.356;2022-07-25T09:49:46;25.60;99.90
25628;DHT22;40915;50.826;4.356;2022-07-25T09:52:12;25.60;99.90
25628;DHT22;40915;50.826;4.356;2022-07-25T09:54:39;25.60;99.90
25628;DHT22;40915;50.826;4.356;2022-07-25T09:57:05;25.70;99.90
25628;DHT22;40915;50.826;4.356;2022-07-25T09:59:32;25.70;99.90
25628;DHT22;40915;50.826;4.356;2022-07-25T10:02:15;25.70;99.90
25628;DHT22;40915;50.826;4.356;2022-07-25T10:07:15;25.60;99.90
25628;DHT22;40915;50.826;4.356;2022-07-25T10:09:46;25.70;99.90
25628;DHT22;40915;50.826;4.356;2022-07-25T10:12:16;25.80;99.90
25628;DHT22;40915;50.826;4.356;2022-07-25T10:14:42;26.10;99.90
25628;DHT22;40915;50.826;4.356;2022-07-25T10:17:27;26.20;99.90
25628;DHT22;40915;50.826;4.356;2022-07-25T10:19:52;26.40;99.90
25628;DHT22;40915;50.826;4.356;2022-07-25T10:22:19;26.30;99.90
25628;DHT22;40915;50.826;4.356;2022-07-25T10:24:46;26.10;99.90
25628;DHT22;40915;50.826;4.356;2022-07-25T10:27:16;26.00;99.90
25628;DHT22;40915;50.826;4.356;2022-07-25T10:29:51;26.00;99.90
25628;DHT22;40915;50.826;4.356;2022-07-25T10:32:17;26.10;99.90
25628;DHT22;40915;50.826;4.356;2022-07-25T10:34:51;26.20;99.90
25628;DHT22;40915;50.826;4.356;2022-07-25T10:37:17;26.30;99.90
25628;DHT22;40915;50.826;4.356;2022-07-25T10:39:45;26.50;99.90
25628;DHT22;40915;50.826;4.356;2022-07-25T10:42:14;26.50;99.90
25628;DHT22;40915;50.826;4.356;2022-07-25T10:44:48;26.30;99.90
25628;DHT22;40915;50.826;4.356;2022-07-25T10:47:16;26.30;99.90
25628;DHT22;40915;50.826;4.356;2022-07-25T10:49:44;26.10;99.90
25628;DHT22;40915;50.826;4.356;2022-07-25T10:52:17;26.00;99.90
25628;DHT22;40915;50.826;4.356;2022-07-25T10:54:55;25.70;99.90
25628;DHT22;40915;50.826;4.356;2022-07-25T10:57:21;25.50;99.90
25628;DHT22;40915;50.826;4.356;2022-07-25T10:59:46;25.30;99.90
25628;DHT22;40915;50.826;4.356;2022-07-25T11:02:15;25.00;99.90
25628;DHT22;40915;50.826;4.356;2022-07-25T11:04:56;24.90;99.90
25628;DHT22;40915;50.826;4.356;2022-07-25T11:07:22;24.80;99.90
25628;DHT22;40915;50.826;4.356;2022-07-25T11:09:59;24.80;99.90
25628;DHT22;40915;50.826;4.356;2022-07-25T11:12:25;24.70;99.90
25628;DHT22;40915;50.826;4.356;2022-07-25T11:15:04;24.60;99.90
25628;DHT22;40915;50.826;4.356;2022-07-25T11:17:30;24.40;99.90
25628;DHT22;40915;50.826;4.356;2022-07-25T11:20:00;24.20;99.90
25628;DHT22;40915;50.826;4.356;2022-07-25T11:22:27;24.20;99.90
25628;DHT22;40915;50.826;4.356;2022-07-25T11:24:53;24.10;99.90
25628;DHT22;40915;50.826;4.356;2022-07-25T11:27:27;24.20;99.90
25628;DHT22;40915;50.826;4.356;2022-07-25T11:30:08;24.10;99.90
25628;DHT22;40915;50.826;4.356;2022-07-25T11:32:42;24.10;99.90
25628;DHT22;40915;50.826;4.356;2022-07-25T11:35:09;24.00;99.90
25628;DHT22;40915;50.826;4.356;2022-07-25T11:37:37;24.00;99.90
25628;DHT22;40915;50.826;4.356;2022-07-25T11:40:03;23.80;99.90
25628;DHT22;40915;50.826;4.356;2022-07-25T11:42:41;23.70;99.90
25628;DHT22;40915;50.826;4.356;2022-07-25T11:45:29;23.80;99.90
25628;DHT22;40915;50.826;4.356;2022-07-25T11:48:04;23.70;99.90
25628;DHT22;40915;50.826;4.356;2022-07-25T11:50:34;23.80;99.90
25628;DHT22;40915;50.826;4.356;2022-07-25T11:53:01;23.80;99.90
25628;DHT22;40915;50.826;4.356;2022-07-25T11:55:29;23.90;99.90
25628;DHT22;40915;50.826;4.356;2022-07-25T11:58:01;23.90;99.90
25628;DHT22;40915;50.826;4.356;2022-07-25T12:00:29;24.00;99.90
25628;DHT22;40915;50.826;4.356;2022-07-25T12:03:06;24.20;99.90
25628;DHT22;40915;50.826;4.356;2022-07-25T12:05:32;24.20;99.90
25628;DHT22;40915;50.826;4.356;2022-07-25T12:08:10;24.20;99.90
25628;DHT22;40915;50.826;4.356;2022-07-25T12:10:38;24.10;99.90
25628;DHT22;40915;50.826;4.356;2022-07-25T12:13:05;24.20;99.90
25628;DHT22;40915;50.826;4.356;2022-07-25T12:15:34;24.40;99.90
25628;DHT22;40915;50.826;4.356;2022-07-25T12:18:00;24.70;99.90
25628;DHT22;40915;50.826;4.356;2022-07-25T12:20:33;24.80;99.90
25628;DHT22;40915;50.826;4.356;2022-07-25T12:23:03;25.00;99.90
25628;DHT22;40915;50.826;4.356;2022-07-25T12:25:31;25.00;99.90
25628;DHT22;40915;50.826;4.356;2022-07-25T12:27:58;24.90;99.90
25628;DHT22;40915;50.826;4.356;2022-07-25T12:30:27;24.70;99.90
25628;DHT22;40915;50.826;4.356;2022-07-25T12:32:54;24.60;99.90
25628;DHT22;40915;50.826;4.356;2022-07-25T12:35:20;24.60;99.90
25628;DHT22;40915;50.826;4.356;2022-07-25T12:37:46;24.40;99.90
25628;DHT22;40915;50.826;4.356;2022-07-25T12:40:13;24.40;99.90
25628;DHT22;40915;50.826;4.356;2022-07-25T12:42:39;24.40;99.90
25628;DHT22;40915;50.826;4.356;2022-07-25T12:45:06;24.40;99.90
25628;DHT22;40915;50.826;4.356;2022-07-25T12:47:33;24.60;99.90
25628;DHT22;40915;50.826;4.356;2022-07-25T12:49:59;24.80;99.90
25628;DHT22;40915;50.826;4.356;2022-07-25T12:52:24;24.90;99.90
25628;DHT22;40915;50.826;4.356;2022-07-25T12:54:50;25.00;99.90
25628;DHT22;40915;50.826;4.356;2022-07-25T12:57:16;25.30;99.90
25628;DHT22;40915;50.826;4.356;2022-07-25T12:59:42;25.60;99.90
25628;DHT22;40915;50.826;4.356;2022-07-25T13:02:08;25.70;99.90
25628;DHT22;40915;50.826;4.356;2022-07-25T13:04:34;25.80;99.90
25628;DHT22;40915;50.826;4.356;2022-07-25T13:07:00;25.70;99.90
25628;DHT22;40915;50.826;4.356;2022-07-25T13:09:26;25.70;99.90
25628;DHT22;40915;50.826;4.356;2022-07-25T13:11:53;25.70;99.90
25628;DHT22;40915;50.826;4.356;2022-07-25T13:14:19;25.60;99.90
25628;DHT22;40915;50.826;4.356;2022-07-25T13:16:45;25.60;99.90
25628;DHT22;40915;50.826;4.356;2022-07-25T13:19:15;25.60;99.90
25628;DHT22;40915;50.826;4.356;2022-07-25T13:21:44;25.60;99.90
25628;DHT22;40915;50.826;4.356;2022-07-25T13:24:10;25.50;99.90
25628;DHT22;40915;50.826;4.356;2022-07-25T13:26:37;25.20;99.90
25628;DHT22;40915;50.826;4.356;2022-07-25T13:29:03;25.30;99.90
25628;DHT22;40915;50.826;4.356;2022-07-25T13:31:33;25.30;99.90
25628;DHT22;40915;50.826;4.356;2022-07-25T13:34:00;25.30;99.90
25628;DHT22;40915;50.826;4.356;2022-07-25T13:36:26;25.40;99.90
25628;DHT22;40915;50.826;4.356;2022-07-25T13:38:52;25.60;99.90
25628;DHT22;40915;50.826;4.356;2022-07-25T13:41:17;25.50;99.90
25628;DHT22;40915;50.826;4.356;2022-07-25T13:43:43;25.40;99.90
25628;DHT22;40915;50.826;4.356;2022-07-25T13:46:09;25.40;99.90
25628;DHT22;40915;50.826;4.356;2022-07-25T13:48:35;25.60;99.90
25628;DHT22;40915;50.826;4.356;2022-07-25T13:51:02;25.60;99.90
25628;DHT22;40915;50.826;4.356;2022-07-25T13:53:27;25.70;99.90
25628;DHT22;40915;50.826;4.356;2022-07-25T13:55:54;25.50;99.90
25628;DHT22;40915;50.826;4.356;2022-07-25T13:58:20;25.50;99.90
25628;DHT22;40915;50.826;4.356;2022-07-25T14:00:46;25.70;99.90
25628;DHT22;40915;50.826;4.356;2022-07-25T14:03:12;25.80;99.90
25628;DHT22;40915;50.826;4.356;2022-07-25T14:05:38;26.00;99.90
25628;DHT22;40915;50.826;4.356;2022-07-25T14:08:04;26.00;99.90
25628;DHT22;40915;50.826;4.356;2022-07-25T14:10:30;26.00;99.90
25628;DHT22;40915;50.826;4.356;2022-07-25T14:12:56;25.90;99.90
25628;DHT22;40915;50.826;4.356;2022-07-25T14:15:21;25.80;99.90
25628;DHT22;40915;50.826;4.356;2022-07-25T14:17:47;25.90;99.90
25628;DHT22;40915;50.826;4.356;2022-07-25T14:20:13;25.90;99.90
25628;DHT22;40915;50.826;4.356;2022-07-25T14:22:39;25.90;99.90
25628;DHT22;40915;50.826;4.356;2022-07-25T14:25:07;25.80;99.90
25628;DHT22;40915;50.826;4.356;2022-07-25T14:27:34;25.90;99.90
25628;DHT22;40915;50.826;4.356;2022-07-25T14:29:59;25.60;99.90
25628;DHT22;40915;50.826;4.356;2022-07-25T14:32:25;25.60;99.90
25628;DHT22;40915;50.826;4.356;2022-07-25T14:34:51;25.70;99.90
25628;DHT22;40915;50.826;4.356;2022-07-25T14:37:18;25.70;99.90
25628;DHT22;40915;50.826;4.356;2022-07-25T14:39:45;25.70;99.90
25628;DHT22;40915;50.826;4.356;2022-07-25T14:42:11;25.70;99.90
25628;DHT22;40915;50.826;4.356;2022-07-25T14:44:37;25.70;99.90
25628;DHT22;40915;50.826;4.356;2022-07-25T14:47:05;25.70;99.90
25628;DHT22;40915;50.826;4.356;2022-07-25T14:49:30;25.80;99.90
25628;DHT22;40915;50.826;4.356;2022-07-25T14:51:56;25.90;99.90
25628;DHT22;40915;50.826;4.356;2022-07-25T14:54:22;25.80;99.90
25628;DHT22;40915;50.826;4.356;2022-07-25T14:56:47;25.70;99.90
25628;DHT22;40915;50.826;4.356;2022-07-25T14:59:13;25.80;99.90
25628;DHT22;40915;50.826;4.356;2022-07-25T15:01:39;25.90;99.90
25628;DHT22;40915;50.826;4.356;2022-07-25T15:04:05;25.80;99.90
25628;DHT22;40915;50.826;4.356;2022-07-25T15:06:30;25.70;99.90
25628;DHT22;40915;50.826;4.356;2022-07-25T15:08:56;25.60;99.90
25628;DHT22;40915;50.826;4.356;2022-07-25T15:11:22;25.60;99.90
25628;DHT22;40915;50.826;4.356;2022-07-25T15:13:48;25.60;99.90
25628;DHT22;40915;50.826;4.356;2022-07-25T15:16:15;25.60;99.90
25628;DHT22;40915;50.826;4.356;2022-07-25T15:18:42;25.80;99.90
25628;DHT22;40915;50.826;4.356;2022-07-25T15:21:13;26.00;99.90
25628;DHT22;40915;50.826;4.356;2022-07-25T15:23:39;25.90;99.90
25628;DHT22;40915;50.826;4.356;2022-07-25T15:26:06;25.70;99.90
25628;DHT22;40915;50.826;4.356;2022-07-25T15:28:32;25.70;99.90
25628;DHT22;40915;50.826;4.356;2022-07-25T15:30:58;25.60;99.90
25628;DHT22;40915;50.826;4.356;2022-07-25T15:33:24;25.30;99.90
25628;DHT22;40915;50.826;4.356;2022-07-25T15:35:50;25.30;99.90
25628;DHT22;40915;50.826;4.356;2022-07-25T15:38:16;25.50;99.90
25628;DHT22;40915;50.826;4.356;2022-07-25T15:40:43;25.60;99.90
25628;DHT22;40915;50.826;4.356;2022-07-25T15:43:09;25.70;99.90